sensor_id;sensor_type;location;lat;lon;timestamp;temperature;humidity
78896;HTU21D;68284;59.124;37.910;2023-09-08T00:00:32;12.26;75.57
78896;HTU21D;68284;59.124;37.910;2023-09-08T00:03:02;12.19;75.78
78896;HTU21D;68284;59.124;37.910;2023-09-08T00:05:29;12.15;75.98
78896;HTU21D;68284;59.124;37.910;2023-09-08T00:07:55;12.07;76.21
78896;HTU21D;68284;59.124;37.910;2023-09-08T00:10:22;12.03;76.35
78896;HTU21D;68284;59.124;37.910;2023-09-08T00:12:50;12.02;76.48
78896;HTU21D;68284;59.124;37.910;2023-09-08T00:15:16;11.98;76.65
78896;HTU21D;68284;59.124;37.910;2023-09-08T00:17:42;11.93;76.92
78896;HTU21D;68284;59.124;37.910;2023-09-08T00:20:10;11.90;76.74
78896;HTU21D;68284;59.124;37.910;2023-09-08T00:22:39;11.88;76.94
78896;HTU21D;68284;59.124;37.910;2023-09-08T00:25:07;11.85;77.01
78896;HTU21D;68284;59.124;37.910;2023-09-08T00:27:33;11.82;77.31
78896;HTU21D;68284;59.124;37.910;2023-09-08T00:30:00;11.81;77.45
78896;HTU21D;68284;59.124;37.910;2023-09-08T00:32:29;11.78;77.66
78896;HTU21D;68284;59.124;37.910;2023-09-08T00:34:56;11.77;77.98
78896;HTU21D;68284;59.124;37.910;2023-09-08T00:37:22;11.75;77.84
78896;HTU21D;68284;59.124;37.910;2023-09-08T00:39:50;11.74;77.98
78896;HTU21D;68284;59.124;37.910;2023-09-08T00:42:18;11.74;78.09
78896;HTU21D;68284;59.124;37.910;2023-09-08T00:44:44;11.74;78.18
78896;HTU21D;68284;59.124;37.910;2023-09-08T00:47:10;11.72;78.37
78896;HTU21D;68284;59.124;37.910;2023-09-08T00:49:37;11.72;78.59
78896;HTU21D;68284;59.124;37.910;2023-09-08T00:52:04;11.71;78.60
78896;HTU21D;68284;59.124;37.910;2023-09-08T00:54:31;11.72;78.68
78896;HTU21D;68284;59.124;37.910;2023-09-08T00:57:01;11.71;78.65
78896;HTU21D;68284;59.124;37.910;2023-09-08T00:59:32;11.70;78.70
78896;HTU21D;68284;59.124;37.910;2023-09-08T01:01:58;11.69;78.87
78896;HTU21D;68284;59.124;37.910;2023-09-08T01:04:27;11.69;78.94
78896;HTU21D;68284;59.124;37.910;2023-09-08T01:06:54;11.68;78.98
78896;HTU21D;68284;59.124;37.910;2023-09-08T01:09:22;11.68;79.13
78896;HTU21D;68284;59.124;37.910;2023-09-08T01:11:50;11.66;79.21
78896;HTU21D;68284;59.124;37.910;2023-09-08T01:14:18;11.64;79.22
78896;HTU21D;68284;59.124;37.910;2023-09-08T01:16:47;11.64;79.37
78896;HTU21D;68284;59.124;37.910;2023-09-08T01:19:16;11.62;79.45
78896;HTU21D;68284;59.124;37.910;2023-09-08T01:22:03;11.61;79.59
78896;HTU21D;68284;59.124;37.910;2023-09-08T01:27:24;11.55;79.58
78896;HTU21D;68284;59.124;37.910;2023-09-08T01:29:54;11.52;79.60
78896;HTU21D;68284;59.124;37.910;2023-09-08T01:32:21;11.47;79.62
78896;HTU21D;68284;59.124;37.910;2023-09-08T01:34:48;11.43;79.75
78896;HTU21D;68284;59.124;37.910;2023-09-08T01:37:15;11.40;79.75
78896;HTU21D;68284;59.124;37.910;2023-09-08T01:39:41;11.37;80.11
78896;HTU21D;68284;59.124;37.910;2023-09-08T01:42:09;11.31;79.78
78896;HTU21D;68284;59.124;37.910;2023-09-08T01:44:36;11.28;79.89
78896;HTU21D;68284;59.124;37.910;2023-09-08T01:47:02;11.25;80.36
78896;HTU21D;68284;59.124;37.910;2023-09-08T01:49:30;11.20;79.91
78896;HTU21D;68284;59.124;37.910;2023-09-08T01:51:56;11.17;79.99
78896;HTU21D;68284;59.124;37.910;2023-09-08T01:54:24;11.13;80.14
78896;HTU21D;68284;59.124;37.910;2023-09-08T01:56:50;11.12;80.23
78896;HTU21D;68284;59.124;37.910;2023-09-08T01:59:17;11.09;80.33
78896;HTU21D;68284;59.124;37.910;2023-09-08T02:01:44;11.08;80.39
78896;HTU21D;68284;59.124;37.910;2023-09-08T02:04:10;11.05;80.68
78896;HTU21D;68284;59.124;37.910;2023-09-08T02:06:37;11.04;80.46
78896;HTU21D;68284;59.124;37.910;2023-09-08T02:09:03;11.04;80.50
78896;HTU21D;68284;59.124;37.910;2023-09-08T02:11:31;11.03;80.47
78896;HTU21D;68284;59.124;37.910;2023-09-08T02:13:59;11.03;80.53
78896;HTU21D;68284;59.124;37.910;2023-09-08T02:16:25;11.05;80.67
78896;HTU21D;68284;59.124;37.910;2023-09-08T02:18:52;11.05;80.83
78896;HTU21D;68284;59.124;37.910;2023-09-08T02:21:18;11.08;80.95
78896;HTU21D;68284;59.124;37.910;2023-09-08T02:23:44;11.07;80.62
78896;HTU21D;68284;59.124;37.910;2023-09-08T02:26:12;11.07;80.60
78896;HTU21D;68284;59.124;37.910;2023-09-08T02:28:38;11.05;80.59
78896;HTU21D;68284;59.124;37.910;2023-09-08T02:31:05;11.02;80.67
78896;HTU21D;68284;59.124;37.910;2023-09-08T02:33:32;11.02;80.79
78896;HTU21D;68284;59.124;37.910;2023-09-08T02:36:05;11.00;80.88
78896;HTU21D;68284;59.124;37.910;2023-09-08T02:38:33;11.01;80.83
78896;HTU21D;68284;59.124;37.910;2023-09-08T02:40:59;10.99;80.79
78896;HTU21D;68284;59.124;37.910;2023-09-08T02:43:27;10.98;80.81
78896;HTU21D;68284;59.124;37.910;2023-09-08T02:45:54;10.97;80.79
78896;HTU21D;68284;59.124;37.910;2023-09-08T02:48:21;10.94;80.93
78896;HTU21D;68284;59.124;37.910;2023-09-08T02:50:47;10.90;81.04
78896;HTU21D;68284;59.124;37.910;2023-09-08T02:53:15;10.87;81.14
78896;HTU21D;68284;59.124;37.910;2023-09-08T02:55:41;10.84;81.12
78896;HTU21D;68284;59.124;37.910;2023-09-08T02:58:07;10.82;81.20
78896;HTU21D;68284;59.124;37.910;2023-09-08T03:00:33;10.82;81.27
78896;HTU21D;68284;59.124;37.910;2023-09-08T03:03:01;10.82;81.19
78896;HTU21D;68284;59.124;37.910;2023-09-08T03:05:27;10.84;81.20
78896;HTU21D;68284;59.124;37.910;2023-09-08T03:07:54;10.84;81.20
78896;HTU21D;68284;59.124;37.910;2023-09-08T03:10:21;10.88;81.21
78896;HTU21D;68284;59.124;37.910;2023-09-08T03:12:48;10.94;81.16
78896;HTU21D;68284;59.124;37.910;2023-09-08T03:15:17;11.01;81.04
78896;HTU21D;68284;59.124;37.910;2023-09-08T03:17:43;11.09;80.85
78896;HTU21D;68284;59.124;37.910;2023-09-08T03:20:10;11.12;80.65
78896;HTU21D;68284;59.124;37.910;2023-09-08T03:22:37;11.15;80.52
78896;HTU21D;68284;59.124;37.910;2023-09-08T03:25:03;11.15;80.62
78896;HTU21D;68284;59.124;37.910;2023-09-08T03:27:31;11.13;80.34
78896;HTU21D;68284;59.124;37.910;2023-09-08T03:29:58;11.14;80.35
78896;HTU21D;68284;59.124;37.910;2023-09-08T03:32:27;11.15;80.31
78896;HTU21D;68284;59.124;37.910;2023-09-08T03:34:56;11.16;80.28
78896;HTU21D;68284;59.124;37.910;2023-09-08T03:37:23;11.17;80.22
78896;HTU21D;68284;59.124;37.910;2023-09-08T03:39:50;11.19;80.14
78896;HTU21D;68284;59.124;37.910;2023-09-08T03:42:24;11.22;79.97
78896;HTU21D;68284;59.124;37.910;2023-09-08T03:44:51;11.24;79.87
78896;HTU21D;68284;59.124;37.910;2023-09-08T03:47:17;11.25;79.75
78896;HTU21D;68284;59.124;37.910;2023-09-08T03:49:44;11.26;79.56
78896;HTU21D;68284;59.124;37.910;2023-09-08T03:52:11;11.27;79.46
78896;HTU21D;68284;59.124;37.910;2023-09-08T03:54:38;11.26;79.41
78896;HTU21D;68284;59.124;37.910;2023-09-08T03:57:05;11.27;79.36
78896;HTU21D;68284;59.124;37.910;2023-09-08T03:59:34;11.28;79.32
78896;HTU21D;68284;59.124;37.910;2023-09-08T04:02:00;11.28;79.26
78896;HTU21D;68284;59.124;37.910;2023-09-08T04:04:28;11.29;79.15
78896;HTU21D;68284;59.124;37.910;2023-09-08T04:06:54;11.30;79.01
78896;HTU21D;68284;59.124;37.910;2023-09-08T04:09:22;11.31;78.94
78896;HTU21D;68284;59.124;37.910;2023-09-08T04:11:48;11.32;78.77
78896;HTU21D;68284;59.124;37.910;2023-09-08T04:14:15;11.33;78.65
78896;HTU21D;68284;59.124;37.910;2023-09-08T04:16:41;11.36;78.53
78896;HTU21D;68284;59.124;37.910;2023-09-08T04:19:09;11.36;78.43
78896;HTU21D;68284;59.124;37.910;2023-09-08T04:21:37;11.38;78.29
78896;HTU21D;68284;59.124;37.910;2023-09-08T04:24:03;11.38;78.13
78896;HTU21D;68284;59.124;37.910;2023-09-08T04:26:31;11.40;78.04
78896;HTU21D;68284;59.124;37.910;2023-09-08T04:28:57;11.41;78.01
78896;HTU21D;68284;59.124;37.910;2023-09-08T04:31:23;11.40;77.87
78896;HTU21D;68284;59.124;37.910;2023-09-08T04:33:55;11.41;77.72
78896;HTU21D;68284;59.124;37.910;2023-09-08T04:36:25;11.43;77.47
78896;HTU21D;68284;59.124;37.910;2023-09-08T04:38:54;11.46;77.33
78896;HTU21D;68284;59.124;37.910;2023-09-08T04:41:20;11.49;76.92
78896;HTU21D;68284;59.124;37.910;2023-09-08T04:43:49;11.53;76.86
78896;HTU21D;68284;59.124;37.910;2023-09-08T04:46:18;11.56;76.57
78896;HTU21D;68284;59.124;37.910;2023-09-08T04:48:45;11.59;76.18
78896;HTU21D;68284;59.124;37.910;2023-09-08T04:51:15;11.62;76.01
78896;HTU21D;68284;59.124;37.910;2023-09-08T04:53:46;11.68;75.89
78896;HTU21D;68284;59.124;37.910;2023-09-08T04:56:16;11.72;75.70
78896;HTU21D;68284;59.124;37.910;2023-09-08T04:58:44;11.72;75.63
78896;HTU21D;68284;59.124;37.910;2023-09-08T05:01:13;11.71;75.41
78896;HTU21D;68284;59.124;37.910;2023-09-08T05:03:45;11.72;75.43
78896;HTU21D;68284;59.124;37.910;2023-09-08T05:06:11;11.72;75.40
78896;HTU21D;68284;59.124;37.910;2023-09-08T05:08:41;11.72;75.37
78896;HTU21D;68284;59.124;37.910;2023-09-08T05:11:09;11.73;75.09
78896;HTU21D;68284;59.124;37.910;2023-09-08T05:13:38;11.72;74.52
78896;HTU21D;68284;59.124;37.910;2023-09-08T05:16:06;11.73;74.31
78896;HTU21D;68284;59.124;37.910;2023-09-08T05:18:46;11.75;73.77
78896;HTU21D;68284;59.124;37.910;2023-09-08T05:21:13;11.77;73.18
78896;HTU21D;68284;59.124;37.910;2023-09-08T05:23:43;11.81;72.26
78896;HTU21D;68284;59.124;37.910;2023-09-08T05:26:11;11.85;71.85
78896;HTU21D;68284;59.124;37.910;2023-09-08T05:28:39;11.89;71.41
78896;HTU21D;68284;59.124;37.910;2023-09-08T05:31:06;11.93;71.10
78896;HTU21D;68284;59.124;37.910;2023-09-08T05:33:36;11.99;70.82
78896;HTU21D;68284;59.124;37.910;2023-09-08T05:36:06;12.04;70.71
78896;HTU21D;68284;59.124;37.910;2023-09-08T05:38:34;12.13;70.49
78896;HTU21D;68284;59.124;37.910;2023-09-08T05:41:01;12.22;69.97
78896;HTU21D;68284;59.124;37.910;2023-09-08T05:43:32;12.32;69.64
78896;HTU21D;68284;59.124;37.910;2023-09-08T05:45:59;12.41;69.13
78896;HTU21D;68284;59.124;37.910;2023-09-08T05:48:28;12.50;68.38
78896;HTU21D;68284;59.124;37.910;2023-09-08T05:50:57;12.58;68.09
78896;HTU21D;68284;59.124;37.910;2023-09-08T05:53:25;12.66;67.80
78896;HTU21D;68284;59.124;37.910;2023-09-08T05:55:52;12.74;67.47
78896;HTU21D;68284;59.124;37.910;2023-09-08T05:58:19;12.80;66.89
78896;HTU21D;68284;59.124;37.910;2023-09-08T06:00:49;12.82;66.78
78896;HTU21D;68284;59.124;37.910;2023-09-08T06:03:15;12.89;66.47
78896;HTU21D;68284;59.124;37.910;2023-09-08T06:05:42;12.90;66.26
78896;HTU21D;68284;59.124;37.910;2023-09-08T06:08:09;12.94;66.02
78896;HTU21D;68284;59.124;37.910;2023-09-08T06:10:39;12.99;66.01
78896;HTU21D;68284;59.124;37.910;2023-09-08T06:13:09;13.08;65.84
78896;HTU21D;68284;59.124;37.910;2023-09-08T06:15:36;13.16;65.17
78896;HTU21D;68284;59.124;37.910;2023-09-08T06:18:11;13.22;65.04
78896;HTU21D;68284;59.124;37.910;2023-09-08T06:20:44;13.29;64.96
78896;HTU21D;68284;59.124;37.910;2023-09-08T06:23:12;13.38;64.66
78896;HTU21D;68284;59.124;37.910;2023-09-08T06:25:40;13.43;64.30
78896;HTU21D;68284;59.124;37.910;2023-09-08T06:28:09;13.48;64.25
78896;HTU21D;68284;59.124;37.910;2023-09-08T06:30:36;13.52;64.08
78896;HTU21D;68284;59.124;37.910;2023-09-08T06:33:06;13.53;63.77
78896;HTU21D;68284;59.124;37.910;2023-09-08T06:35:33;13.52;63.74
78896;HTU21D;68284;59.124;37.910;2023-09-08T06:38:03;13.52;63.53
78896;HTU21D;68284;59.124;37.910;2023-09-08T06:40:32;13.54;63.51
78896;HTU21D;68284;59.124;37.910;2023-09-08T06:43:01;13.52;63.23
78896;HTU21D;68284;59.124;37.910;2023-09-08T06:45:47;13.49;63.01
78896;HTU21D;68284;59.124;37.910;2023-09-08T06:48:15;13.50;63.19
78896;HTU21D;68284;59.124;37.910;2023-09-08T06:50:45;13.51;62.82
78896;HTU21D;68284;59.124;37.910;2023-09-08T06:53:14;13.51;62.31
78896;HTU21D;68284;59.124;37.910;2023-09-08T06:56:09;13.46;61.45
78896;HTU21D;68284;59.124;37.910;2023-09-08T06:58:35;13.41;61.89
78896;HTU21D;68284;59.124;37.910;2023-09-08T07:01:06;13.39;61.91
78896;HTU21D;68284;59.124;37.910;2023-09-08T07:03:35;13.39;61.86
78896;HTU21D;68284;59.124;37.910;2023-09-08T07:06:05;13.38;61.73
78896;HTU21D;68284;59.124;37.910;2023-09-08T07:08:34;13.40;61.36
78896;HTU21D;68284;59.124;37.910;2023-09-08T07:11:02;13.38;61.03
78896;HTU21D;68284;59.124;37.910;2023-09-08T07:13:29;13.39;61.05
78896;HTU21D;68284;59.124;37.910;2023-09-08T07:15:59;13.43;61.13
78896;HTU21D;68284;59.124;37.910;2023-09-08T07:18:27;13.51;61.11
78896;HTU21D;68284;59.124;37.910;2023-09-08T07:20:58;13.63;60.66
78896;HTU21D;68284;59.124;37.910;2023-09-08T07:23:26;13.76;60.55
78896;HTU21D;68284;59.124;37.910;2023-09-08T07:25:54;13.91;60.09
78896;HTU21D;68284;59.124;37.910;2023-09-08T07:28:25;14.04;59.73
78896;HTU21D;68284;59.124;37.910;2023-09-08T07:30:53;14.15;59.09
78896;HTU21D;68284;59.124;37.910;2023-09-08T07:33:25;14.21;58.74
78896;HTU21D;68284;59.124;37.910;2023-09-08T07:35:56;14.30;58.80
78896;HTU21D;68284;59.124;37.910;2023-09-08T07:38:29;14.42;58.58
78896;HTU21D;68284;59.124;37.910;2023-09-08T07:41:05;14.55;58.09
78896;HTU21D;68284;59.124;37.910;2023-09-08T07:43:36;14.58;57.53
78896;HTU21D;68284;59.124;37.910;2023-09-08T07:46:09;14.58;57.09
78896;HTU21D;68284;59.124;37.910;2023-09-08T07:48:38;14.56;57.13
78896;HTU21D;68284;59.124;37.910;2023-09-08T07:51:07;14.52;57.23
78896;HTU21D;68284;59.124;37.910;2023-09-08T07:53:34;14.44;57.54
78896;HTU21D;68284;59.124;37.910;2023-09-08T07:56:01;14.32;57.93
78896;HTU21D;68284;59.124;37.910;2023-09-08T07:58:30;14.17;58.37
78896;HTU21D;68284;59.124;37.910;2023-09-08T08:00:58;14.07;58.79
78896;HTU21D;68284;59.124;37.910;2023-09-08T08:03:26;14.04;59.10
78896;HTU21D;68284;59.124;37.910;2023-09-08T08:05:58;14.09;59.23
78896;HTU21D;68284;59.124;37.910;2023-09-08T08:08:27;14.15;59.28
78896;HTU21D;68284;59.124;37.910;2023-09-08T08:10:55;14.24;59.54
78896;HTU21D;68284;59.124;37.910;2023-09-08T08:13:25;14.40;59.47
78896;HTU21D;68284;59.124;37.910;2023-09-08T08:15:57;14.56;59.20
78896;HTU21D;68284;59.124;37.910;2023-09-08T08:18:25;14.67;59.16
78896;HTU21D;68284;59.124;37.910;2023-09-08T08:20:54;14.77;58.88
78896;HTU21D;68284;59.124;37.910;2023-09-08T08:23:25;14.79;58.73
78896;HTU21D;68284;59.124;37.910;2023-09-08T08:25:52;14.82;58.80
78896;HTU21D;68284;59.124;37.910;2023-09-08T08:28:20;14.83;58.84
78896;HTU21D;68284;59.124;37.910;2023-09-08T08:30:47;14.85;58.78
78896;HTU21D;68284;59.124;37.910;2023-09-08T08:33:20;14.84;58.82
78896;HTU21D;68284;59.124;37.910;2023-09-08T08:35:51;14.83;58.88
78896;HTU21D;68284;59.124;37.910;2023-09-08T08:38:19;14.79;59.17
78896;HTU21D;68284;59.124;37.910;2023-09-08T08:40:49;14.78;59.35
78896;HTU21D;68284;59.124;37.910;2023-09-08T08:43:18;14.77;59.00
78896;HTU21D;68284;59.124;37.910;2023-09-08T08:45:49;14.77;59.17
78896;HTU21D;68284;59.124;37.910;2023-09-08T08:48:21;14.73;59.02
78896;HTU21D;68284;59.124;37.910;2023-09-08T08:50:48;14.71;58.98
78896;HTU21D;68284;59.124;37.910;2023-09-08T08:53:22;14.72;58.95
78896;HTU21D;68284;59.124;37.910;2023-09-08T08:55:54;14.75;59.03
78896;HTU21D;68284;59.124;37.910;2023-09-08T08:58:22;14.79;59.00
78896;HTU21D;68284;59.124;37.910;2023-09-08T09:00:54;14.79;58.99
78896;HTU21D;68284;59.124;37.910;2023-09-08T09:03:27;14.83;59.09
78896;HTU21D;68284;59.124;37.910;2023-09-08T09:05:55;14.87;58.89
78896;HTU21D;68284;59.124;37.910;2023-09-08T09:08:24;14.93;58.84
78896;HTU21D;68284;59.124;37.910;2023-09-08T09:10:53;15.00;58.74
78896;HTU21D;68284;59.124;37.910;2023-09-08T09:13:22;15.10;58.61
78896;HTU21D;68284;59.124;37.910;2023-09-08T09:15:50;15.19;58.39
78896;HTU21D;68284;59.124;37.910;2023-09-08T09:18:21;15.26;57.97
78896;HTU21D;68284;59.124;37.910;2023-09-08T09:21:00;15.28;57.80
78896;HTU21D;68284;59.124;37.910;2023-09-08T09:23:29;15.29;57.85
78896;HTU21D;68284;59.124;37.910;2023-09-08T09:26:03;15.30;57.90
78896;HTU21D;68284;59.124;37.910;2023-09-08T09:28:47;15.40;57.76
78896;HTU21D;68284;59.124;37.910;2023-09-08T09:31:14;15.47;57.74
78896;HTU21D;68284;59.124;37.910;2023-09-08T09:33:42;15.53;57.40
78896;HTU21D;68284;59.124;37.910;2023-09-08T09:36:23;15.57;57.20
78896;HTU21D;68284;59.124;37.910;2023-09-08T09:38:59;15.58;57.02
78896;HTU21D;68284;59.124;37.910;2023-09-08T09:41:33;15.62;57.05
78896;HTU21D;68284;59.124;37.910;2023-09-08T09:44:01;15.66;56.85
78896;HTU21D;68284;59.124;37.910;2023-09-08T09:46:43;15.70;56.64
78896;HTU21D;68284;59.124;37.910;2023-09-08T09:49:21;15.77;56.62
78896;HTU21D;68284;59.124;37.910;2023-09-08T09:51:55;15.83;56.41
78896;HTU21D;68284;59.124;37.910;2023-09-08T09:54:22;15.89;56.26
78896;HTU21D;68284;59.124;37.910;2023-09-08T09:56:50;15.90;56.13
78896;HTU21D;68284;59.124;37.910;2023-09-08T09:59:21;15.91;56.24
78896;HTU21D;68284;59.124;37.910;2023-09-08T10:02:11;16.05;56.16
78896;HTU21D;68284;59.124;37.910;2023-09-08T10:04:48;16.17;56.21
78896;HTU21D;68284;59.124;37.910;2023-09-08T10:07:21;16.34;56.00
78896;HTU21D;68284;59.124;37.910;2023-09-08T10:10:04;16.47;55.68
78896;HTU21D;68284;59.124;37.910;2023-09-08T10:12:43;16.57;55.16
78896;HTU21D;68284;59.124;37.910;2023-09-08T10:15:19;16.57;54.85
78896;HTU21D;68284;59.124;37.910;2023-09-08T10:17:56;16.47;55.00
78896;HTU21D;68284;59.124;37.910;2023-09-08T10:20:32;16.37;55.18
78896;HTU21D;68284;59.124;37.910;2023-09-08T10:23:23;16.27;55.16
78896;HTU21D;68284;59.124;37.910;2023-09-08T10:25:57;16.18;55.57
78896;HTU21D;68284;59.124;37.910;2023-09-08T10:28:29;16.18;55.71
78896;HTU21D;68284;59.124;37.910;2023-09-08T10:31:06;16.21;55.58
78896;HTU21D;68284;59.124;37.910;2023-09-08T10:33:37;16.21;55.65
78896;HTU21D;68284;59.124;37.910;2023-09-08T10:36:08;16.17;55.58
78896;HTU21D;68284;59.124;37.910;2023-09-08T10:38:50;16.07;55.79
78896;HTU21D;68284;59.124;37.910;2023-09-08T10:41:26;16.01;55.95
78896;HTU21D;68284;59.124;37.910;2023-09-08T10:43:55;15.97;56.00
78896;HTU21D;68284;59.124;37.910;2023-09-08T10:46:24;15.91;56.23
78896;HTU21D;68284;59.124;37.910;2023-09-08T10:48:54;15.96;56.35
78896;HTU21D;68284;59.124;37.910;2023-09-08T10:51:24;15.99;56.42
78896;HTU21D;68284;59.124;37.910;2023-09-08T10:53:51;16.05;56.32
78896;HTU21D;68284;59.124;37.910;2023-09-08T10:56:17;16.05;56.31
78896;HTU21D;68284;59.124;37.910;2023-09-08T10:58:55;16.04;56.39
78896;HTU21D;68284;59.124;37.910;2023-09-08T11:01:22;16.00;56.49
78896;HTU21D;68284;59.124;37.910;2023-09-08T11:03:53;15.97;56.65
78896;HTU21D;68284;59.124;37.910;2023-09-08T11:06:22;15.91;56.68
78896;HTU21D;68284;59.124;37.910;2023-09-08T11:08:49;15.85;56.71
78896;HTU21D;68284;59.124;37.910;2023-09-08T11:11:34;15.78;56.90
78896;HTU21D;68284;59.124;37.910;2023-09-08T11:14:03;15.77;57.06
78896;HTU21D;68284;59.124;37.910;2023-09-08T11:16:30;15.77;57.19
78896;HTU21D;68284;59.124;37.910;2023-09-08T11:19:02;15.78;57.31
78896;HTU21D;68284;59.124;37.910;2023-09-08T11:21:30;15.83;57.25
78896;HTU21D;68284;59.124;37.910;2023-09-08T11:24:08;15.85;57.10
78896;HTU21D;68284;59.124;37.910;2023-09-08T11:26:37;15.89;57.06
78896;HTU21D;68284;59.124;37.910;2023-09-08T11:29:07;16.00;56.97
78896;HTU21D;68284;59.124;37.910;2023-09-08T11:31:33;16.06;56.84
78896;HTU21D;68284;59.124;37.910;2023-09-08T11:34:04;16.10;56.78
78896;HTU21D;68284;59.124;37.910;2023-09-08T11:36:38;16.10;56.88
78896;HTU21D;68284;59.124;37.910;2023-09-08T11:39:09;16.10;56.97
78896;HTU21D;68284;59.124;37.910;2023-09-08T11:41:37;16.08;57.02
78896;HTU21D;68284;59.124;37.910;2023-09-08T11:44:05;16.14;57.03
78896;HTU21D;68284;59.124;37.910;2023-09-08T11:46:35;16.29;56.87
78896;HTU21D;68284;59.124;37.910;2023-09-08T11:49:05;16.41;56.74
78896;HTU21D;68284;59.124;37.910;2023-09-08T11:51:33;16.46;56.59
78896;HTU21D;68284;59.124;37.910;2023-09-08T11:54:02;16.40;56.44
78896;HTU21D;68284;59.124;37.910;2023-09-08T11:56:30;16.33;56.66
78896;HTU21D;68284;59.124;37.910;2023-09-08T11:59:01;16.30;56.70
78896;HTU21D;68284;59.124;37.910;2023-09-08T12:01:40;16.29;56.76
78896;HTU21D;68284;59.124;37.910;2023-09-08T12:04:26;16.35;56.71
78896;HTU21D;68284;59.124;37.910;2023-09-08T12:06:59;16.43;56.74
78896;HTU21D;68284;59.124;37.910;2023-09-08T12:09:27;16.45;56.72
78896;HTU21D;68284;59.124;37.910;2023-09-08T12:11:54;16.43;56.74
78896;HTU21D;68284;59.124;37.910;2023-09-08T12:14:24;16.36;56.93
78896;HTU21D;68284;59.124;37.910;2023-09-08T12:17:05;16.35;57.06
78896;HTU21D;68284;59.124;37.910;2023-09-08T12:19:37;16.36;57.10
78896;HTU21D;68284;59.124;37.910;2023-09-08T12:22:08;16.42;56.99
78896;HTU21D;68284;59.124;37.910;2023-09-08T12:25:12;16.44;56.96
78896;HTU21D;68284;59.124;37.910;2023-09-08T12:27:49;16.41;57.04
78896;HTU21D;68284;59.124;37.910;2023-09-08T12:30:28;16.35;57.13
78896;HTU21D;68284;59.124;37.910;2023-09-08T12:33:08;16.34;57.17
78896;HTU21D;68284;59.124;37.910;2023-09-08T12:35:51;16.36;57.09
78896;HTU21D;68284;59.124;37.910;2023-09-08T12:38:32;16.34;57.10
78896;HTU21D;68284;59.124;37.910;2023-09-08T12:40:59;16.32;57.16
78896;HTU21D;68284;59.124;37.910;2023-09-08T12:43:36;16.32;57.27
78896;HTU21D;68284;59.124;37.910;2023-09-08T12:46:11;16.29;57.38
78896;HTU21D;68284;59.124;37.910;2023-09-08T12:48:41;16.26;57.46
78896;HTU21D;68284;59.124;37.910;2023-09-08T12:51:13;16.22;57.62
78896;HTU21D;68284;59.124;37.910;2023-09-08T12:53:43;16.16;57.74
78896;HTU21D;68284;59.124;37.910;2023-09-08T12:56:12;16.08;57.95
78896;HTU21D;68284;59.124;37.910;2023-09-08T12:58:39;16.04;58.16
78896;HTU21D;68284;59.124;37.910;2023-09-08T13:01:16;16.00;58.36
78896;HTU21D;68284;59.124;37.910;2023-09-08T13:03:45;15.91;58.55
78896;HTU21D;68284;59.124;37.910;2023-09-08T13:06:13;15.85;58.75
78896;HTU21D;68284;59.124;37.910;2023-09-08T13:08:42;15.78;58.90
78896;HTU21D;68284;59.124;37.910;2023-09-08T13:11:11;15.71;59.07
78896;HTU21D;68284;59.124;37.910;2023-09-08T13:13:49;15.66;59.31
78896;HTU21D;68284;59.124;37.910;2023-09-08T13:16:20;15.58;59.48
78896;HTU21D;68284;59.124;37.910;2023-09-08T13:18:51;15.54;59.67
78896;HTU21D;68284;59.124;37.910;2023-09-08T13:21:22;15.51;59.80
78896;HTU21D;68284;59.124;37.910;2023-09-08T13:23:54;15.53;59.88
78896;HTU21D;68284;59.124;37.910;2023-09-08T13:26:24;15.52;59.95
78896;HTU21D;68284;59.124;37.910;2023-09-08T13:28:59;15.49;60.06
78896;HTU21D;68284;59.124;37.910;2023-09-08T13:31:28;15.46;60.21
78896;HTU21D;68284;59.124;37.910;2023-09-08T13:34:02;15.42;60.33
78896;HTU21D;68284;59.124;37.910;2023-09-08T13:36:34;15.34;60.57
78896;HTU21D;68284;59.124;37.910;2023-09-08T13:39:03;15.31;60.76
78896;HTU21D;68284;59.124;37.910;2023-09-08T13:41:56;15.27;61.01
78896;HTU21D;68284;59.124;37.910;2023-09-08T13:44:28;15.26;61.08
78896;HTU21D;68284;59.124;37.910;2023-09-08T13:46:57;15.30;61.23
78896;HTU21D;68284;59.124;37.910;2023-09-08T13:49:31;15.32;61.34
78896;HTU21D;68284;59.124;37.910;2023-09-08T13:52:05;15.36;61.40
78896;HTU21D;68284;59.124;37.910;2023-09-08T13:54:36;15.38;61.47
78896;HTU21D;68284;59.124;37.910;2023-09-08T13:57:11;15.36;61.62
78896;HTU21D;68284;59.124;37.910;2023-09-08T13:59:47;15.36;61.74
78896;HTU21D;68284;59.124;37.910;2023-09-08T14:02:15;15.33;61.80
78896;HTU21D;68284;59.124;37.910;2023-09-08T14:04:42;15.30;61.88
78896;HTU21D;68284;59.124;37.910;2023-09-08T14:07:09;15.26;62.04
78896;HTU21D;68284;59.124;37.910;2023-09-08T14:09:36;15.19;62.24
78896;HTU21D;68284;59.124;37.910;2023-09-08T14:12:07;15.14;62.44
78896;HTU21D;68284;59.124;37.910;2023-09-08T14:14:35;15.10;62.69
78896;HTU21D;68284;59.124;37.910;2023-09-08T14:17:06;15.09;62.84
78896;HTU21D;68284;59.124;37.910;2023-09-08T14:19:38;15.10;62.92
78896;HTU21D;68284;59.124;37.910;2023-09-08T14:22:11;15.10;62.96
78896;HTU21D;68284;59.124;37.910;2023-09-08T14:24:40;15.13;62.99
78896;HTU21D;68284;59.124;37.910;2023-09-08T14:27:11;15.15;62.98
78896;HTU21D;68284;59.124;37.910;2023-09-08T14:29:38;15.15;63.00
78896;HTU21D;68284;59.124;37.910;2023-09-08T14:32:05;15.13;63.10
78896;HTU21D;68284;59.124;37.910;2023-09-08T14:34:33;15.10;63.24
78896;HTU21D;68284;59.124;37.910;2023-09-08T14:37:02;15.09;63.33
78896;HTU21D;68284;59.124;37.910;2023-09-08T14:39:39;15.06;63.55
78896;HTU21D;68284;59.124;37.910;2023-09-08T14:42:08;15.02;63.59
78896;HTU21D;68284;59.124;37.910;2023-09-08T14:44:36;15.00;63.73
78896;HTU21D;68284;59.124;37.910;2023-09-08T14:47:02;14.98;63.88
78896;HTU21D;68284;59.124;37.910;2023-09-08T14:49:32;14.97;63.98
78896;HTU21D;68284;59.124;37.910;2023-09-08T14:52:00;14.92;64.01
78896;HTU21D;68284;59.124;37.910;2023-09-08T14:54:26;14.87;64.08
78896;HTU21D;68284;59.124;37.910;2023-09-08T14:56:54;14.80;64.24
78896;HTU21D;68284;59.124;37.910;2023-09-08T14:59:22;14.78;64.43
78896;HTU21D;68284;59.124;37.910;2023-09-08T15:01:54;14.77;64.59
78896;HTU21D;68284;59.124;37.910;2023-09-08T15:04:22;14.73;64.72
78896;HTU21D;68284;59.124;37.910;2023-09-08T15:06:51;14.68;64.80
78896;HTU21D;68284;59.124;37.910;2023-09-08T15:09:17;14.63;64.81
78896;HTU21D;68284;59.124;37.910;2023-09-08T15:11:47;14.56;64.86
78896;HTU21D;68284;59.124;37.910;2023-09-08T15:14:14;14.50;64.96
78896;HTU21D;68284;59.124;37.910;2023-09-08T15:16:44;14.45;65.09
78896;HTU21D;68284;59.124;37.910;2023-09-08T15:19:10;14.41;65.27
78896;HTU21D;68284;59.124;37.910;2023-09-08T15:21:39;14.34;65.36